sensor_id;sensor_type;location;lat;lon;timestamp;P1;durP1;ratioP1;P2;durP2;ratioP2
33421;SDS011;19763;55.798;37.782;2023-06-26T00:01:57;21.90;;;14.75;;
33421;SDS011;19763;55.798;37.782;2023-06-26T00:04:22;21.70;;;15.80;;
33421;SDS011;19763;55.798;37.782;2023-06-26T00:06:48;24.13;;;17.90;;
33421;SDS011;19763;55.798;37.782;2023-06-26T00:09:13;21.85;;;18.13;;
33421;SDS011;19763;55.798;37.782;2023-06-26T00:11:39;26.17;;;20.05;;
33421;SDS011;19763;55.798;37.782;2023-06-26T00:14:05;20.77;;;17.13;;
33421;SDS011;19763;55.798;37.782;2023-06-26T00:16:31;24.17;;;18.95;;
33421;SDS011;19763;55.798;37.782;2023-06-26T00:18:57;27.35;;;21.67;;
33421;SDS011;19763;55.798;37.782;2023-06-26T00:21:24;42.58;;;27.85;;
33421;SDS011;19763;55.798;37.782;2023-06-26T00:23:50;47.97;;;31.00;;
33421;SDS011;19763;55.798;37.782;2023-06-26T00:26:16;39.53;;;28.98;;
33421;SDS011;19763;55.798;37.782;2023-06-26T00:28:42;39.58;;;27.70;;
33421;SDS011;19763;55.798;37.782;2023-06-26T00:31:07;38.88;;;27.48;;
33421;SDS011;19763;55.798;37.782;2023-06-26T00:33:33;38.08;;;26.58;;
33421;SDS011;19763;55.798;37.782;2023-06-26T00:35:58;35.97;;;25.90;;
33421;SDS011;19763;55.798;37.782;2023-06-26T00:38:24;32.03;;;24.85;;
33421;SDS011;19763;55.798;37.782;2023-06-26T00:40:50;29.70;;;23.15;;
33421;SDS011;19763;55.798;37.782;2023-06-26T00:43:15;33.22;;;23.67;;
33421;SDS011;19763;55.798;37.782;2023-06-26T00:45:41;33.50;;;23.67;;
33421;SDS011;19763;55.798;37.782;2023-06-26T00:48:06;31.48;;;23.40;;
33421;SDS011;19763;55.798;37.782;2023-06-26T00:50:32;28.33;;;22.95;;
33421;SDS011;19763;55.798;37.782;2023-06-26T00:52:57;28.85;;;21.25;;
33421;SDS011;19763;55.798;37.782;2023-06-26T00:55:26;24.55;;;19.58;;
33421;SDS011;19763;55.798;37.782;2023-06-26T00:57:52;26.13;;;21.10;;
33421;SDS011;19763;55.798;37.782;2023-06-26T01:00:19;27.13;;;20.35;;
33421;SDS011;19763;55.798;37.782;2023-06-26T01:02:45;25.17;;;19.90;;
33421;SDS011;19763;55.798;37.782;2023-06-26T01:05:11;23.23;;;19.23;;
33421;SDS011;19763;55.798;37.782;2023-06-26T01:07:44;24.30;;;19.67;;
33421;SDS011;19763;55.798;37.782;2023-06-26T01:10:09;24.67;;;19.50;;
33421;SDS011;19763;55.798;37.782;2023-06-26T01:12:35;23.38;;;19.90;;
33421;SDS011;19763;55.798;37.782;2023-06-26T01:15:03;25.52;;;20.27;;
33421;SDS011;19763;55.798;37.782;2023-06-26T01:17:29;26.70;;;19.38;;
33421;SDS011;19763;55.798;37.782;2023-06-26T01:20:00;22.95;;;18.10;;
33421;SDS011;19763;55.798;37.782;2023-06-26T01:22:45;24.23;;;19.38;;
33421;SDS011;19763;55.798;37.782;2023-06-26T01:25:37;26.48;;;19.55;;
33421;SDS011;19763;55.798;37.782;2023-06-26T01:28:20;29.52;;;22.05;;
33421;SDS011;19763;55.798;37.782;2023-06-26T01:30:48;24.80;;;20.08;;
33421;SDS011;19763;55.798;37.782;2023-06-26T01:33:15;24.90;;;19.40;;
33421;SDS011;19763;55.798;37.782;2023-06-26T01:35:41;25.92;;;20.13;;
33421;SDS011;19763;55.798;37.782;2023-06-26T01:40:39;30.10;;;21.05;;
33421;SDS011;19763;55.798;37.782;2023-06-26T01:43:05;22.92;;;18.15;;
33421;SDS011;19763;55.798;37.782;2023-06-26T01:45:35;21.77;;;18.52;;
33421;SDS011;19763;55.798;37.782;2023-06-26T01:48:02;26.00;;;19.25;;
33421;SDS011;19763;55.798;37.782;2023-06-26T01:50:31;21.48;;;18.00;;
33421;SDS011;19763;55.798;37.782;2023-06-26T01:53:07;22.63;;;18.70;;
33421;SDS011;19763;55.798;37.782;2023-06-26T01:55:41;21.83;;;17.52;;
33421;SDS011;19763;55.798;37.782;2023-06-26T01:58:11;22.45;;;18.35;;
33421;SDS011;19763;55.798;37.782;2023-06-26T02:00:38;21.20;;;18.33;;
33421;SDS011;19763;55.798;37.782;2023-06-26T02:03:05;19.23;;;16.73;;
33421;SDS011;19763;55.798;37.782;2023-06-26T02:05:31;23.33;;;17.73;;
33421;SDS011;19763;55.798;37.782;2023-06-26T02:07:57;21.20;;;17.58;;
33421;SDS011;19763;55.798;37.782;2023-06-26T02:10:23;20.75;;;18.23;;
33421;SDS011;19763;55.798;37.782;2023-06-26T02:12:49;21.23;;;16.90;;
33421;SDS011;19763;55.798;37.782;2023-06-26T02:15:14;20.52;;;16.00;;
33421;SDS011;19763;55.798;37.782;2023-06-26T02:17:40;20.52;;;17.23;;
33421;SDS011;19763;55.798;37.782;2023-06-26T02:20:05;18.80;;;16.67;;
33421;SDS011;19763;55.798;37.782;2023-06-26T02:22:33;19.20;;;15.48;;
33421;SDS011;19763;55.798;37.782;2023-06-26T02:24:58;19.83;;;17.38;;
33421;SDS011;19763;55.798;37.782;2023-06-26T02:27:24;18.38;;;16.33;;
33421;SDS011;19763;55.798;37.782;2023-06-26T02:29:50;18.15;;;16.17;;
33421;SDS011;19763;55.798;37.782;2023-06-26T02:32:15;18.20;;;16.17;;
33421;SDS011;19763;55.798;37.782;2023-06-26T02:34:41;19.75;;;15.60;;
33421;SDS011;19763;55.798;37.782;2023-06-26T02:37:06;17.63;;;14.82;;
33421;SDS011;19763;55.798;37.782;2023-06-26T02:39:33;21.25;;;17.40;;
33421;SDS011;19763;55.798;37.782;2023-06-26T02:41:59;17.95;;;15.88;;
33421;SDS011;19763;55.798;37.782;2023-06-26T02:44:25;17.45;;;15.07;;
33421;SDS011;19763;55.798;37.782;2023-06-26T02:46:50;18.20;;;15.73;;
33421;SDS011;19763;55.798;37.782;2023-06-26T02:49:16;20.35;;;15.13;;
33421;SDS011;19763;55.798;37.782;2023-06-26T02:51:41;20.33;;;16.35;;
33421;SDS011;19763;55.798;37.782;2023-06-26T02:54:07;20.45;;;15.77;;
33421;SDS011;19763;55.798;37.782;2023-06-26T02:56:32;18.98;;;15.20;;
33421;SDS011;19763;55.798;37.782;2023-06-26T02:58:58;18.17;;;15.75;;
33421;SDS011;19763;55.798;37.782;2023-06-26T03:01:24;15.63;;;14.00;;
33421;SDS011;19763;55.798;37.782;2023-06-26T03:03:49;15.50;;;13.90;;
33421;SDS011;19763;55.798;37.782;2023-06-26T03:06:15;16.10;;;14.40;;
33421;SDS011;19763;55.798;37.782;2023-06-26T03:08:41;24.02;;;18.30;;
33421;SDS011;19763;55.798;37.782;2023-06-26T03:11:07;20.20;;;17.73;;
33421;SDS011;19763;55.798;37.782;2023-06-26T03:13:34;18.20;;;14.55;;
33421;SDS011;19763;55.798;37.782;2023-06-26T03:16:01;16.90;;;14.48;;
33421;SDS011;19763;55.798;37.782;2023-06-26T03:18:26;17.98;;;15.07;;
33421;SDS011;19763;55.798;37.782;2023-06-26T03:20:52;18.23;;;15.07;;
33421;SDS011;19763;55.798;37.782;2023-06-26T03:23:19;16.98;;;13.70;;
33421;SDS011;19763;55.798;37.782;2023-06-26T03:25:45;17.65;;;14.20;;
33421;SDS011;19763;55.798;37.782;2023-06-26T03:28:11;18.73;;;15.38;;
33421;SDS011;19763;55.798;37.782;2023-06-26T03:30:36;17.83;;;14.40;;
33421;SDS011;19763;55.798;37.782;2023-06-26T03:33:02;17.48;;;15.60;;
33421;SDS011;19763;55.798;37.782;2023-06-26T03:35:27;16.67;;;14.40;;
33421;SDS011;19763;55.798;37.782;2023-06-26T03:37:53;16.35;;;13.70;;
33421;SDS011;19763;55.798;37.782;2023-06-26T03:40:19;20.95;;;17.63;;
33421;SDS011;19763;55.798;37.782;2023-06-26T03:42:45;19.23;;;15.30;;
33421;SDS011;19763;55.798;37.782;2023-06-26T03:45:10;18.95;;;14.27;;
33421;SDS011;19763;55.798;37.782;2023-06-26T03:47:36;20.55;;;17.73;;
33421;SDS011;19763;55.798;37.782;2023-06-26T03:50:02;22.60;;;17.52;;
33421;SDS011;19763;55.798;37.782;2023-06-26T03:52:28;22.77;;;17.33;;
33421;SDS011;19763;55.798;37.782;2023-06-26T03:54:56;23.35;;;19.02;;
33421;SDS011;19763;55.798;37.782;2023-06-26T03:57:22;23.38;;;19.45;;
33421;SDS011;19763;55.798;37.782;2023-06-26T03:59:48;20.85;;;18.20;;
33421;SDS011;19763;55.798;37.782;2023-06-26T04:02:13;22.48;;;19.48;;
33421;SDS011;19763;55.798;37.782;2023-06-26T04:04:39;22.83;;;19.30;;
33421;SDS011;19763;55.798;37.782;2023-06-26T04:07:04;26.45;;;19.98;;
33421;SDS011;19763;55.798;37.782;2023-06-26T04:09:30;21.15;;;17.67;;
33421;SDS011;19763;55.798;37.782;2023-06-26T04:11:55;22.58;;;17.02;;
33421;SDS011;19763;55.798;37.782;2023-06-26T04:14:21;21.70;;;16.60;;
33421;SDS011;19763;55.798;37.782;2023-06-26T04:16:46;19.30;;;17.00;;
33421;SDS011;19763;55.798;37.782;2023-06-26T04:19:12;18.90;;;15.88;;
33421;SDS011;19763;55.798;37.782;2023-06-26T04:21:38;20.27;;;15.77;;
33421;SDS011;19763;55.798;37.782;2023-06-26T04:24:04;19.40;;;14.73;;
33421;SDS011;19763;55.798;37.782;2023-06-26T04:26:30;21.65;;;15.52;;
33421;SDS011;19763;55.798;37.782;2023-06-26T04:28:55;17.88;;;15.23;;
33421;SDS011;19763;55.798;37.782;2023-06-26T04:31:21;14.43;;;12.80;;
33421;SDS011;19763;55.798;37.782;2023-06-26T04:33:47;14.38;;;12.80;;
33421;SDS011;19763;55.798;37.782;2023-06-26T04:36:16;15.60;;;12.85;;
33421;SDS011;19763;55.798;37.782;2023-06-26T04:38:43;13.93;;;11.40;;
33421;SDS011;19763;55.798;37.782;2023-06-26T04:41:08;14.73;;;12.98;;
33421;SDS011;19763;55.798;37.782;2023-06-26T04:43:34;15.18;;;11.57;;
33421;SDS011;19763;55.798;37.782;2023-06-26T04:45:59;14.18;;;10.55;;
33421;SDS011;19763;55.798;37.782;2023-06-26T04:48:25;12.88;;;11.40;;
33421;SDS011;19763;55.798;37.782;2023-06-26T04:50:54;13.63;;;10.43;;
33421;SDS011;19763;55.798;37.782;2023-06-26T04:53:21;14.25;;;11.25;;
33421;SDS011;19763;55.798;37.782;2023-06-26T04:55:48;11.55;;;10.32;;
33421;SDS011;19763;55.798;37.782;2023-06-26T04:58:15;12.15;;;10.85;;
33421;SDS011;19763;55.798;37.782;2023-06-26T05:00:41;13.52;;;11.10;;
33421;SDS011;19763;55.798;37.782;2023-06-26T05:03:08;14.95;;;11.63;;
33421;SDS011;19763;55.798;37.782;2023-06-26T05:05:34;11.73;;;8.93;;
33421;SDS011;19763;55.798;37.782;2023-06-26T05:08:12;10.63;;;9.57;;
33421;SDS011;19763;55.798;37.782;2023-06-26T05:10:42;12.90;;;10.20;;
33421;SDS011;19763;55.798;37.782;2023-06-26T05:13:08;12.25;;;9.45;;
33421;SDS011;19763;55.798;37.782;2023-06-26T05:15:33;10.80;;;9.65;;
33421;SDS011;19763;55.798;37.782;2023-06-26T05:17:59;10.10;;;8.93;;
33421;SDS011;19763;55.798;37.782;2023-06-26T05:20:24;10.05;;;9.02;;
33421;SDS011;19763;55.798;37.782;2023-06-26T05:22:50;10.95;;;8.38;;
33421;SDS011;19763;55.798;37.782;2023-06-26T05:25:16;8.10;;;7.30;;
33421;SDS011;19763;55.798;37.782;2023-06-26T05:27:46;11.82;;;8.35;;
33421;SDS011;19763;55.798;37.782;2023-06-26T05:30:12;9.65;;;8.05;;
33421;SDS011;19763;55.798;37.782;2023-06-26T05:32:38;8.90;;;8.00;;
33421;SDS011;19763;55.798;37.782;2023-06-26T05:35:05;8.25;;;7.45;;
33421;SDS011;19763;55.798;37.782;2023-06-26T05:37:32;11.43;;;7.43;;
33421;SDS011;19763;55.798;37.782;2023-06-26T05:39:58;7.50;;;6.75;;
33421;SDS011;19763;55.798;37.782;2023-06-26T05:42:25;7.95;;;7.13;;
33421;SDS011;19763;55.798;37.782;2023-06-26T05:44:55;7.95;;;7.15;;
33421;SDS011;19763;55.798;37.782;2023-06-26T05:47:21;8.18;;;7.38;;
33421;SDS011;19763;55.798;37.782;2023-06-26T05:49:47;9.13;;;7.47;;
33421;SDS011;19763;55.798;37.782;2023-06-26T05:52:13;8.60;;;6.75;;
33421;SDS011;19763;55.798;37.782;2023-06-26T05:54:39;10.13;;;7.47;;
33421;SDS011;19763;55.798;37.782;2023-06-26T05:57:04;11.15;;;9.73;;
33421;SDS011;19763;55.798;37.782;2023-06-26T05:59:31;7.88;;;7.07;;
33421;SDS011;19763;55.798;37.782;2023-06-26T06:01:57;9.27;;;7.38;;
33421;SDS011;19763;55.798;37.782;2023-06-26T06:04:22;10.00;;;7.70;;
33421;SDS011;19763;55.798;37.782;2023-06-26T06:06:48;8.32;;;7.25;;
33421;SDS011;19763;55.798;37.782;2023-06-26T06:09:13;8.60;;;6.57;;
33421;SDS011;19763;55.798;37.782;2023-06-26T06:11:39;7.13;;;6.43;;
33421;SDS011;19763;55.798;37.782;2023-06-26T06:14:05;9.10;;;7.38;;
33421;SDS011;19763;55.798;37.782;2023-06-26T06:16:30;7.68;;;6.88;;
33421;SDS011;19763;55.798;37.782;2023-06-26T06:18:56;7.93;;;7.13;;
33421;SDS011;19763;55.798;37.782;2023-06-26T06:21:21;7.70;;;6.75;;
33421;SDS011;19763;55.798;37.782;2023-06-26T06:23:47;7.82;;;7.05;;
33421;SDS011;19763;55.798;37.782;2023-06-26T06:26:12;7.78;;;6.97;;
33421;SDS011;19763;55.798;37.782;2023-06-26T06:28:38;7.35;;;6.65;;
33421;SDS011;19763;55.798;37.782;2023-06-26T06:31:04;9.25;;;7.55;;
33421;SDS011;19763;55.798;37.782;2023-06-26T06:33:30;7.45;;;6.75;;
33421;SDS011;19763;55.798;37.782;2023-06-26T06:35:56;9.32;;;7.10;;
33421;SDS011;19763;55.798;37.782;2023-06-26T06:38:21;7.75;;;6.95;;
33421;SDS011;19763;55.798;37.782;2023-06-26T06:40:47;8.05;;;7.25;;
33421;SDS011;19763;55.798;37.782;2023-06-26T06:43:12;8.55;;;7.35;;
33421;SDS011;19763;55.798;37.782;2023-06-26T06:45:38;7.63;;;6.93;;
33421;SDS011;19763;55.798;37.782;2023-06-26T06:48:04;6.95;;;6.35;;
33421;SDS011;19763;55.798;37.782;2023-06-26T06:50:30;7.03;;;6.43;;
33421;SDS011;19763;55.798;37.782;2023-06-26T06:52:56;7.88;;;6.90;;
33421;SDS011;19763;55.798;37.782;2023-06-26T06:55:22;7.50;;;6.75;;
33421;SDS011;19763;55.798;37.782;2023-06-26T06:57:47;8.55;;;6.10;;
33421;SDS011;19763;55.798;37.782;2023-06-26T07:00:13;8.27;;;6.55;;
33421;SDS011;19763;55.798;37.782;2023-06-26T07:02:40;7.07;;;5.97;;
33421;SDS011;19763;55.798;37.782;2023-06-26T07:05:07;7.28;;;6.55;;
33421;SDS011;19763;55.798;37.782;2023-06-26T07:07:33;6.63;;;5.78;;
33421;SDS011;19763;55.798;37.782;2023-06-26T07:10:00;6.82;;;6.13;;
33421;SDS011;19763;55.798;37.782;2023-06-26T07:12:27;7.07;;;6.22;;
33421;SDS011;19763;55.798;37.782;2023-06-26T07:14:54;8.80;;;6.75;;
33421;SDS011;19763;55.798;37.782;2023-06-26T07:17:20;6.55;;;5.95;;
33421;SDS011;19763;55.798;37.782;2023-06-26T07:19:46;7.18;;;5.93;;
33421;SDS011;19763;55.798;37.782;2023-06-26T07:22:12;7.68;;;6.00;;
33421;SDS011;19763;55.798;37.782;2023-06-26T07:24:38;6.63;;;6.00;;
33421;SDS011;19763;55.798;37.782;2023-06-26T07:27:03;7.38;;;6.43;;
33421;SDS011;19763;55.798;37.782;2023-06-26T07:29:29;9.20;;;6.68;;
33421;SDS011;19763;55.798;37.782;2023-06-26T07:31:54;6.93;;;6.22;;
33421;SDS011;19763;55.798;37.782;2023-06-26T07:34:20;6.60;;;6.00;;
33421;SDS011;19763;55.798;37.782;2023-06-26T07:36:46;7.75;;;5.82;;
33421;SDS011;19763;55.798;37.782;2023-06-26T07:39:11;6.47;;;5.80;;
33421;SDS011;19763;55.798;37.782;2023-06-26T07:41:37;6.80;;;6.20;;
33421;SDS011;19763;55.798;37.782;2023-06-26T07:44:02;7.10;;;6.15;;
33421;SDS011;19763;55.798;37.782;2023-06-26T07:46:28;7.82;;;6.35;;
33421;SDS011;19763;55.798;37.782;2023-06-26T07:48:54;8.32;;;6.50;;
33421;SDS011;19763;55.798;37.782;2023-06-26T07:51:20;9.77;;;6.63;;
33421;SDS011;19763;55.798;37.782;2023-06-26T07:53:45;6.80;;;6.10;;
33421;SDS011;19763;55.798;37.782;2023-06-26T07:56:11;9.45;;;6.38;;
33421;SDS011;19763;55.798;37.782;2023-06-26T07:58:37;7.38;;;6.63;;
33421;SDS011;19763;55.798;37.782;2023-06-26T08:01:02;6.88;;;6.10;;
33421;SDS011;19763;55.798;37.782;2023-06-26T08:03:28;7.72;;;6.95;;
33421;SDS011;19763;55.798;37.782;2023-06-26T08:05:53;6.40;;;5.80;;
33421;SDS011;19763;55.798;37.782;2023-06-26T08:08:19;7.78;;;5.38;;
33421;SDS011;19763;55.798;37.782;2023-06-26T08:10:44;6.63;;;5.90;;
33421;SDS011;19763;55.798;37.782;2023-06-26T08:13:10;7.15;;;6.15;;
33421;SDS011;19763;55.798;37.782;2023-06-26T08:15:36;7.05;;;6.35;;
33421;SDS011;19763;55.798;37.782;2023-06-26T08:18:01;7.70;;;6.18;;
33421;SDS011;19763;55.798;37.782;2023-06-26T08:20:27;7.10;;;6.13;;
33421;SDS011;19763;55.798;37.782;2023-06-26T08:22:53;6.65;;;5.90;;
33421;SDS011;19763;55.798;37.782;2023-06-26T08:25:19;7.20;;;6.50;;
33421;SDS011;19763;55.798;37.782;2023-06-26T08:27:45;6.38;;;5.80;;
33421;SDS011;19763;55.798;37.782;2023-06-26T08:30:11;8.73;;;7.25;;
33421;SDS011;19763;55.798;37.782;2023-06-26T08:32:37;7.55;;;6.35;;
33421;SDS011;19763;55.798;37.782;2023-06-26T08:35:02;7.55;;;6.45;;
33421;SDS011;19763;55.798;37.782;2023-06-26T08:37:29;7.10;;;6.40;;
33421;SDS011;19763;55.798;37.782;2023-06-26T08:39:58;6.57;;;5.97;;
33421;SDS011;19763;55.798;37.782;2023-06-26T08:42:24;8.18;;;6.90;;
33421;SDS011;19763;55.798;37.782;2023-06-26T08:44:50;7.35;;;6.60;;
33421;SDS011;19763;55.798;37.782;2023-06-26T08:47:15;9.75;;;6.57;;
33421;SDS011;19763;55.798;37.782;2023-06-26T08:52:10;9.13;;;6.53;;
33421;SDS011;19763;55.798;37.782;2023-06-26T08:54:47;6.72;;;6.13;;
33421;SDS011;19763;55.798;37.782;2023-06-26T08:57:19;7.10;;;6.38;;
33421;SDS011;19763;55.798;37.782;2023-06-26T08:59:47;6.93;;;6.22;;
33421;SDS011;19763;55.798;37.782;2023-06-26T09:02:13;7.40;;;6.00;;
33421;SDS011;19763;55.798;37.782;2023-06-26T09:04:39;9.63;;;6.68;;
33421;SDS011;19763;55.798;37.782;2023-06-26T09:07:05;7.05;;;6.35;;
33421;SDS011;19763;55.798;37.782;2023-06-26T09:09:31;7.47;;;6.53;;
33421;SDS011;19763;55.798;37.782;2023-06-26T09:11:57;8.95;;;6.47;;
33421;SDS011;19763;55.798;37.782;2023-06-26T09:14:23;6.97;;;6.28;;
33421;SDS011;19763;55.798;37.782;2023-06-26T09:16:49;8.77;;;6.75;;
33421;SDS011;19763;55.798;37.782;2023-06-26T09:19:15;6.32;;;5.72;;
33421;SDS011;19763;55.798;37.782;2023-06-26T09:21:41;7.00;;;5.97;;
33421;SDS011;19763;55.798;37.782;2023-06-26T09:24:08;6.72;;;6.13;;
33421;SDS011;19763;55.798;37.782;2023-06-26T09:26:38;7.07;;;6.38;;
33421;SDS011;19763;55.798;37.782;2023-06-26T09:29:05;7.32;;;5.90;;
33421;SDS011;19763;55.798;37.782;2023-06-26T09:31:32;7.28;;;6.57;;
33421;SDS011;19763;55.798;37.782;2023-06-26T09:33:59;8.85;;;6.47;;
33421;SDS011;19763;55.798;37.782;2023-06-26T09:36:27;10.45;;;6.50;;
33421;SDS011;19763;55.798;37.782;2023-06-26T09:38:54;7.30;;;6.60;;
33421;SDS011;19763;55.798;37.782;2023-06-26T09:41:20;10.73;;;6.43;;
33421;SDS011;19763;55.798;37.782;2023-06-26T09:43:49;7.93;;;6.78;;
33421;SDS011;19763;55.798;37.782;2023-06-26T09:46:28;7.53;;;6.35;;
33421;SDS011;19763;55.798;37.782;2023-06-26T09:49:03;7.85;;;7.10;;
33421;SDS011;19763;55.798;37.782;2023-06-26T09:51:31;7.68;;;6.85;;
33421;SDS011;19763;55.798;37.782;2023-06-26T09:53:58;9.52;;;6.40;;
33421;SDS011;19763;55.798;37.782;2023-06-26T09:56:24;7.47;;;6.45;;
33421;SDS011;19763;55.798;37.782;2023-06-26T09:58:50;9.63;;;6.90;;
33421;SDS011;19763;55.798;37.782;2023-06-26T10:01:17;8.45;;;6.20;;
33421;SDS011;19763;55.798;37.782;2023-06-26T10:03:43;6.80;;;6.20;;
33421;SDS011;19763;55.798;37.782;2023-06-26T10:06:09;7.85;;;7.13;;
33421;SDS011;19763;55.798;37.782;2023-06-26T10:08:37;7.07;;;6.38;;
33421;SDS011;19763;55.798;37.782;2023-06-26T10:11:04;8.18;;;6.97;;
33421;SDS011;19763;55.798;37.782;2023-06-26T10:13:35;8.10;;;7.05;;
33421;SDS011;19763;55.798;37.782;2023-06-26T10:16:07;10.15;;;6.28;;
33421;SDS011;19763;55.798;37.782;2023-06-26T10:18:35;14.07;;;7.05;;
33421;SDS011;19763;55.798;37.782;2023-06-26T10:21:03;6.85;;;6.15;;
33421;SDS011;19763;55.798;37.782;2023-06-26T10:23:31;10.18;;;6.45;;
33421;SDS011;19763;55.798;37.782;2023-06-26T10:25:58;8.18;;;6.50;;
33421;SDS011;19763;55.798;37.782;2023-06-26T10:28:26;6.45;;;5.85;;
33421;SDS011;19763;55.798;37.782;2023-06-26T10:30:55;6.63;;;5.90;;
33421;SDS011;19763;55.798;37.782;2023-06-26T10:33:22;7.07;;;6.38;;
33421;SDS011;19763;55.798;37.782;2023-06-26T10:35:48;9.70;;;6.78;;
33421;SDS011;19763;55.798;37.782;2023-06-26T10:38:14;6.80;;;6.20;;
33421;SDS011;19763;55.798;37.782;2023-06-26T10:40:46;6.95;;;6.30;;
33421;SDS011;19763;55.798;37.782;2023-06-26T10:43:16;6.85;;;6.25;;
33421;SDS011;19763;55.798;37.782;2023-06-26T10:45:49;6.88;;;6.18;;
33421;SDS011;19763;55.798;37.782;2023-06-26T10:48:20;7.57;;;6.43;;
33421;SDS011;19763;55.798;37.782;2023-06-26T10:50:48;7.43;;;6.50;;
33421;SDS011;19763;55.798;37.782;2023-06-26T10:56:02;7.03;;;6.13;;
33421;SDS011;19763;55.798;37.782;2023-06-26T11:01:25;9.30;;;6.40;;
33421;SDS011;19763;55.798;37.782;2023-06-26T11:06:23;6.97;;;5.75;;
33421;SDS011;19763;55.798;37.782;2023-06-26T11:08:49;6.60;;;5.22;;
33421;SDS011;19763;55.798;37.782;2023-06-26T11:11:18;8.00;;;5.75;;
33421;SDS011;19763;55.798;37.782;2023-06-26T11:13:47;5.90;;;5.40;;
33421;SDS011;19763;55.798;37.782;2023-06-26T11:16:13;6.18;;;5.57;;
33421;SDS011;19763;55.798;37.782;2023-06-26T11:18:40;6.85;;;5.60;;
33421;SDS011;19763;55.798;37.782;2023-06-26T11:23:38;6.95;;;5.75;;
33421;SDS011;19763;55.798;37.782;2023-06-26T11:26:17;7.18;;;6.03;;
33421;SDS011;19763;55.798;37.782;2023-06-26T11:28:54;8.50;;;6.20;;
33421;SDS011;19763;55.798;37.782;2023-06-26T11:31:27;6.13;;;5.40;;
33421;SDS011;19763;55.798;37.782;2023-06-26T11:33:55;7.13;;;6.15;;
33421;SDS011;19763;55.798;37.782;2023-06-26T11:36:28;6.63;;;6.03;;
33421;SDS011;19763;55.798;37.782;2023-06-26T11:38:57;6.75;;;6.15;;
33421;SDS011;19763;55.798;37.782;2023-06-26T11:41:25;7.53;;;6.25;;
33421;SDS011;19763;55.798;37.782;2023-06-26T11:43:53;9.02;;;6.65;;
33421;SDS011;19763;55.798;37.782;2023-06-26T11:46:20;8.18;;;6.78;;
33421;SDS011;19763;55.798;37.782;2023-06-26T11:48:47;7.30;;;6.13;;
33421;SDS011;19763;55.798;37.782;2023-06-26T11:51:13;8.77;;;6.43;;
33421;SDS011;19763;55.798;37.782;2023-06-26T11:53:43;9.75;;;6.10;;
33421;SDS011;19763;55.798;37.782;2023-06-26T11:56:10;6.57;;;5.93;;
33421;SDS011;19763;55.798;37.782;2023-06-26T12:01:26;7.43;;;5.63;;
33421;SDS011;19763;55.798;37.782;2023-06-26T12:03:58;6.95;;;6.18;;
33421;SDS011;19763;55.798;37.782;2023-06-26T12:06:26;8.00;;;5.70;;
33421;SDS011;19763;55.798;37.782;2023-06-26T12:08:53;6.70;;;5.90;;
33421;SDS011;19763;55.798;37.782;2023-06-26T12:11:19;9.13;;;6.40;;
33421;SDS011;19763;55.798;37.782;2023-06-26T12:13:49;9.02;;;6.55;;
33421;SDS011;19763;55.798;37.782;2023-06-26T12:16:15;7.80;;;7.00;;
33421;SDS011;19763;55.798;37.782;2023-06-26T12:18:41;6.47;;;5.82;;
33421;SDS011;19763;55.798;37.782;2023-06-26T12:21:06;8.38;;;6.97;;
33421;SDS011;19763;55.798;37.782;2023-06-26T12:23:41;8.52;;;6.65;;
33421;SDS011;19763;55.798;37.782;2023-06-26T12:26:19;6.68;;;6.07;;
33421;SDS011;19763;55.798;37.782;2023-06-26T12:28:45;7.93;;;6.68;;
33421;SDS011;19763;55.798;37.782;2023-06-26T12:31:12;7.53;;;6.80;;
33421;SDS011;19763;55.798;37.782;2023-06-26T12:33:39;6.93;;;6.22;;
33421;SDS011;19763;55.798;37.782;2023-06-26T12:36:05;6.97;;;6.38;;
33421;SDS011;19763;55.798;37.782;2023-06-26T12:38:36;8.90;;;6.60;;
33421;SDS011;19763;55.798;37.782;2023-06-26T12:41:01;9.70;;;7.05;;
33421;SDS011;19763;55.798;37.782;2023-06-26T12:43:27;7.45;;;6.10;;
33421;SDS011;19763;55.798;37.782;2023-06-26T12:45:55;6.68;;;6.07;;
33421;SDS011;19763;55.798;37.782;2023-06-26T12:48:22;7.20;;;6.20;;
33421;SDS011;19763;55.798;37.782;2023-06-26T12:51:11;10.18;;;6.90;;
33421;SDS011;19763;55.798;37.782;2023-06-26T12:53:40;7.05;;;5.95;;
33421;SDS011;19763;55.798;37.782;2023-06-26T12:56:07;8.13;;;5.90;;
33421;SDS011;19763;55.798;37.782;2023-06-26T12:58:36;6.32;;;5.70;;
33421;SDS011;19763;55.798;37.782;2023-06-26T13:01:03;6.80;;;6.05;;
33421;SDS011;19763;55.798;37.782;2023-06-26T13:03:32;6.35;;;5.75;;
33421;SDS011;19763;55.798;37.782;2023-06-26T13:05:58;6.65;;;5.90;;
33421;SDS011;19763;55.798;37.782;2023-06-26T13:08:23;6.60;;;6.00;;
33421;SDS011;19763;55.798;37.782;2023-06-26T13:10:49;6.65;;;6.05;;
33421;SDS011;19763;55.798;37.782;2023-06-26T13:13:14;7.22;;;6.53;;
33421;SDS011;19763;55.798;37.782;2023-06-26T13:15:40;8.15;;;6.50;;
33421;SDS011;19763;55.798;37.782;2023-06-26T13:18:06;7.38;;;6.32;;
33421;SDS011;19763;55.798;37.782;2023-06-26T13:20:31;9.10;;;6.57;;
33421;SDS011;19763;55.798;37.782;2023-06-26T13:22:57;6.82;;;6.13;;
33421;SDS011;19763;55.798;37.782;2023-06-26T13:25:22;7.18;;;6.47;;
33421;SDS011;19763;55.798;37.782;2023-06-26T13:27:48;6.47;;;5.88;;
33421;SDS011;19763;55.798;37.782;2023-06-26T13:30:14;8.35;;;7.47;;
33421;SDS011;19763;55.798;37.782;2023-06-26T13:32:40;6.57;;;5.78;;
33421;SDS011;19763;55.798;37.782;2023-06-26T13:35:05;7.07;;;6.07;;
33421;SDS011;19763;55.798;37.782;2023-06-26T13:37:32;7.57;;;6.32;;
33421;SDS011;19763;55.798;37.782;2023-06-26T13:39:59;6.50;;;5.90;;
33421;SDS011;19763;55.798;37.782;2023-06-26T13:42:28;7.65;;;5.72;;
33421;SDS011;19763;55.798;37.782;2023-06-26T13:44:54;7.20;;;5.88;;
33421;SDS011;19763;55.798;37.782;2023-06-26T13:47:20;8.18;;;5.80;;
33421;SDS011;19763;55.798;37.782;2023-06-26T13:49:46;6.57;;;5.47;;
33421;SDS011;19763;55.798;37.782;2023-06-26T13:52:11;7.05;;;5.63;;
33421;SDS011;19763;55.798;37.782;2023-06-26T13:54:37;6.75;;;6.05;;
33421;SDS011;19763;55.798;37.782;2023-06-26T13:57:07;8.88;;;6.00;;
33421;SDS011;19763;55.798;37.782;2023-06-26T13:59:33;6.50;;;5.82;;
33421;SDS011;19763;55.798;37.782;2023-06-26T14:01:59;7.32;;;6.40;;
33421;SDS011;19763;55.798;37.782;2023-06-26T14:04:25;7.13;;;6.43;;
33421;SDS011;19763;55.798;37.782;2023-06-26T14:06:51;10.90;;;6.30;;
33421;SDS011;19763;55.798;37.782;2023-06-26T14:09:16;8.13;;;5.90;;
33421;SDS011;19763;55.798;37.782;2023-06-26T14:11:43;6.85;;;6.25;;
33421;SDS011;19763;55.798;37.782;2023-06-26T14:14:09;8.30;;;5.95;;
33421;SDS011;19763;55.798;37.782;2023-06-26T14:16:34;7.55;;;6.15;;
33421;SDS011;19763;55.798;37.782;2023-06-26T14:19:00;8.48;;;6.43;;
33421;SDS011;19763;55.798;37.782;2023-06-26T14:21:25;7.50;;;5.65;;
33421;SDS011;19763;55.798;37.782;2023-06-26T14:23:52;6.40;;;5.80;;
33421;SDS011;19763;55.798;37.782;2023-06-26T14:26:19;6.75;;;6.10;;
33421;SDS011;19763;55.798;37.782;2023-06-26T14:28:45;6.78;;;5.63;;
33421;SDS011;19763;55.798;37.782;2023-06-26T14:31:10;6.85;;;6.15;;
33421;SDS011;19763;55.798;37.782;2023-06-26T14:33:36;7.32;;;6.00;;
33421;SDS011;19763;55.798;37.782;2023-06-26T14:36:01;6.32;;;5.72;;
33421;SDS011;19763;55.798;37.782;2023-06-26T14:38:27;6.85;;;5.75;;
33421;SDS011;19763;55.798;37.782;2023-06-26T14:40:53;7.68;;;5.95;;